Time;durP1;ratioP1;P1;durP2;ratioP2;P2;SDS_P1;SDS_P2;PMS_P1;PMS_P2;Temp;Humidity;BMP_temperature;BMP_pressure;BME280_temperature;BME280_humidity;BME280_pressure;Samples;Min_cycle;Max_cycle;Signal;HPM_P1;HPM_P2
2022/10/23 00:00:56;;;;;;;;;;;12.30;99.90;;;;;;5051605;28;20015;-67
2022/10/23 00:03:23;;;;;;;;;;;12.30;99.90;;;;;;5052245;28;19928;-67
2022/10/23 00:05:49;;;;;;;;;;;12.30;99.90;;;;;;5051359;28;19937;-67
2022/10/23 00:08:16;;;;;;;;;;;12.30;99.90;;;;;;5051698;28;19979;-67
2022/10/23 00:10:43;;;;;;;;;;;12.30;99.90;;;;;;5049002;28;19991;-67
2022/10/23 00:13:11;;;;;;;;;;;12.40;99.90;;;;;;5052778;28;19931;-67
2022/10/23 00:15:37;;;;;;;;;;;12.40;99.90;;;;;;5042160;28;19925;-67
2022/10/23 00:18:04;;;;;;;;;;;12.50;99.90;;;;;;5033238;28;19925;-67
2022/10/23 00:20:31;;;;;;;;;;;12.50;99.90;;;;;;5045480;28;19931;-67
2022/10/23 00:22:57;;;;;;;;;;;12.50;99.90;;;;;;5052695;28;19925;-67
2022/10/23 00:25:24;;;;;;;;;;;12.40;99.90;;;;;;5052027;28;19925;-67
2022/10/23 00:27:51;;;;;;;;;;;12.40;99.90;;;;;;5052089;28;19975;-67
2022/10/23 00:30:19;;;;;;;;;;;12.30;99.90;;;;;;5048325;28;20023;-67
2022/10/23 00:32:45;;;;;;;;;;;12.30;99.90;;;;;;5049853;28;19924;-67
2022/10/23 00:35:12;;;;;;;;;;;12.30;99.90;;;;;;5050824;28;20406;-67
2022/10/23 00:37:39;;;;;;;;;;;12.30;99.90;;;;;;5050461;28;19928;-66
2022/10/23 00:40:06;;;;;;;;;;;12.20;99.90;;;;;;5051769;28;19925;-67
2022/10/23 00:42:33;;;;;;;;;;;12.20;99.90;;;;;;5051661;28;19968;-66
2022/10/23 00:45:12;;;;;;;;;;;12.20;99.90;;;;;;5051478;28;19925;-66
2022/10/23 00:47:40;;;;;;;;;;;12.20;99.90;;;;;;5056791;28;20022;-67
2022/10/23 00:50:07;;;;;;;;;;;12.20;99.90;;;;;;5062392;28;20190;-66
2022/10/23 00:52:36;;;;;;;;;;;12.20;99.90;;;;;;5052163;28;19925;-67
2022/10/23 00:55:04;;;;;;;;;;;12.20;99.90;;;;;;5051419;28;19931;-66
2022/10/23 00:57:30;;;;;;;;;;;12.20;99.90;;;;;;5055619;28;19925;-67
2022/10/23 00:59:57;;;;;;;;;;;12.20;99.90;;;;;;5050421;28;20008;-67
2022/10/23 01:02:24;;;;;;;;;;;12.20;99.90;;;;;;5050776;28;19924;-67
2022/10/23 01:04:52;;;;;;;;;;;12.30;99.90;;;;;;5050065;28;20344;-67
2022/10/23 01:07:21;;;;;;;;;;;12.30;99.90;;;;;;5053516;28;20317;-67
2022/10/23 01:09:55;;;;;;;;;;;12.20;99.90;;;;;;5050775;28;19925;-67
2022/10/23 01:12:24;;;;;;;;;;;12.30;99.90;;;;;;5056485;28;19931;-68
2022/10/23 01:14:57;;;;;;;;;;;12.30;99.90;;;;;;5049401;28;20414;-67
2022/10/23 01:17:25;;;;;;;;;;;12.30;99.90;;;;;;5049568;28;19925;-67
2022/10/23 01:19:59;;;;;;;;;;;12.30;99.90;;;;;;5051741;28;20011;-67
2022/10/23 01:22:33;;;;;;;;;;;12.30;99.90;;;;;;5050688;28;19931;-67
2022/10/23 01:25:01;;;;;;;;;;;12.40;99.90;;;;;;5059430;28;19929;-67
2022/10/23 01:27:32;;;;;;;;;;;12.40;99.90;;;;;;5055913;28;20361;-67
2022/10/23 01:30:03;;;;;;;;;;;12.40;99.90;;;;;;5052712;28;19929;-67
2022/10/23 01:32:32;;;;;;;;;;;12.40;99.90;;;;;;5049902;28;19932;-67
2022/10/23 01:35:02;;;;;;;;;;;12.30;99.90;;;;;;5051183;28;19936;-67
2022/10/23 01:37:30;;;;;;;;;;;12.30;99.90;;;;;;5051321;28;19929;-67
2022/10/23 01:40:01;;;;;;;;;;;12.40;99.90;;;;;;5054584;28;19947;-67
2022/10/23 01:42:30;;;;;;;;;;;12.40;99.90;;;;;;5050979;28;20028;-66
2022/10/23 01:45:00;;;;;;;;;;;12.40;99.90;;;;;;5048814;28;19925;-67
2022/10/23 01:47:28;;;;;;;;;;;12.40;99.90;;;;;;5049554;28;19924;-66
2022/10/23 01:49:55;;;;;;;;;;;12.40;99.90;;;;;;5055392;28;20011;-67
2022/10/23 01:52:22;;;;;;;;;;;12.50;99.90;;;;;;5059110;28;20387;-67
2022/10/23 01:54:51;;;;;;;;;;;12.50;99.90;;;;;;5051366;28;19924;-67
2022/10/23 01:57:19;;;;;;;;;;;12.40;99.90;;;;;;5058387;28;19924;-67
2022/10/23 01:59:47;;;;;;;;;;;12.50;99.90;;;;;;5048211;28;19939;-67
2022/10/23 02:02:16;;;;;;;;;;;12.50;99.90;;;;;;5051486;28;19925;-66
2022/10/23 02:04:46;;;;;;;;;;;12.50;99.90;;;;;;5051483;28;19978;-67
2022/10/23 02:07:12;;;;;;;;;;;12.50;99.90;;;;;;5047780;28;19924;-66
2022/10/23 02:09:39;;;;;;;;;;;12.50;99.90;;;;;;5065283;28;20011;-67
2022/10/23 02:12:07;;;;;;;;;;;12.50;99.90;;;;;;5061756;28;20355;-66
2022/10/23 02:14:40;;;;;;;;;;;12.50;99.90;;;;;;5059756;28;19925;-67
2022/10/23 02:17:15;;;;;;;;;;;12.50;99.90;;;;;;5050561;28;19924;-67
2022/10/23 02:19:46;;;;;;;;;;;12.50;99.90;;;;;;5050196;28;20039;-66
2022/10/23 02:22:17;;;;;;;;;;;12.50;99.90;;;;;;5050929;28;19931;-67
2022/10/23 02:24:47;;;;;;;;;;;12.60;99.90;;;;;;5051064;28;19974;-67
2022/10/23 02:27:16;;;;;;;;;;;12.60;99.90;;;;;;5048514;28;19932;-66
2022/10/23 02:29:44;;;;;;;;;;;12.60;99.90;;;;;;5050072;28;19931;-67
2022/10/23 02:32:11;;;;;;;;;;;12.60;99.90;;;;;;5050773;28;19932;-66
2022/10/23 02:34:38;;;;;;;;;;;12.60;99.90;;;;;;5049703;28;19925;-67
2022/10/23 02:37:06;;;;;;;;;;;12.60;99.90;;;;;;5052689;28;19925;-67
2022/10/23 02:39:32;;;;;;;;;;;12.60;99.90;;;;;;5053957;28;19924;-67
2022/10/23 02:42:02;;;;;;;;;;;12.60;99.90;;;;;;5054697;28;20019;-66
2022/10/23 02:44:36;;;;;;;;;;;12.60;99.90;;;;;;5054491;28;19979;-66
2022/10/23 02:47:08;;;;;;;;;;;12.50;99.90;;;;;;5054259;28;19925;-66
2022/10/23 02:49:38;;;;;;;;;;;12.50;99.90;;;;;;5053423;28;20015;-66
2022/10/23 02:52:09;;;;;;;;;;;12.50;99.90;;;;;;5054069;28;19954;-66
2022/10/23 02:54:54;;;;;;;;;;;12.50;99.90;;;;;;5053730;28;19968;-66
2022/10/23 02:57:24;;;;;;;;;;;12.50;99.90;;;;;;5040353;28;19935;-66
2022/10/23 02:59:54;;;;;;;;;;;12.40;99.90;;;;;;5053173;28;20376;-66
2022/10/23 03:02:23;;;;;;;;;;;12.40;99.90;;;;;;5053027;28;20035;-66
2022/10/23 03:04:50;;;;;;;;;;;12.40;99.90;;;;;;5051772;28;20303;-66
2022/10/23 03:07:19;;;;;;;;;;;12.50;99.90;;;;;;5040267;28;19931;-66
2022/10/23 03:09:45;;;;;;;;;;;12.50;99.90;;;;;;5034303;28;19932;-67
2022/10/23 03:12:12;;;;;;;;;;;12.50;99.90;;;;;;5038815;28;19924;-67
2022/10/23 03:14:39;;;;;;;;;;;12.40;99.90;;;;;;5053365;28;20019;-67
2022/10/23 03:17:06;;;;;;;;;;;12.50;99.90;;;;;;5053485;28;20015;-67
2022/10/23 03:19:32;;;;;;;;;;;12.40;99.90;;;;;;5052415;28;20016;-67
2022/10/23 03:21:59;;;;;;;;;;;12.40;99.90;;;;;;5052714;28;20019;-67
2022/10/23 03:24:27;;;;;;;;;;;12.40;99.90;;;;;;5053182;28;19996;-67
2022/10/23 03:26:54;;;;;;;;;;;12.40;99.90;;;;;;5051510;28;19933;-67
2022/10/23 03:29:20;;;;;;;;;;;12.40;99.90;;;;;;5054097;28;20820;-67
2022/10/23 03:31:47;;;;;;;;;;;12.40;99.90;;;;;;5050461;28;19925;-67
2022/10/23 03:34:14;;;;;;;;;;;12.40;99.90;;;;;;5052728;28;19959;-67
2022/10/23 03:36:40;;;;;;;;;;;12.40;99.90;;;;;;5051215;28;19986;-67
2022/10/23 03:39:07;;;;;;;;;;;12.40;99.90;;;;;;5052201;28;19925;-67
2022/10/23 03:41:35;;;;;;;;;;;12.40;99.90;;;;;;5053418;28;20023;-66
2022/10/23 03:44:02;;;;;;;;;;;12.40;99.90;;;;;;5054002;28;19935;-67
2022/10/23 03:46:28;;;;;;;;;;;12.40;99.90;;;;;;5051202;28;19990;-67
2022/10/23 03:48:57;;;;;;;;;;;12.40;99.90;;;;;;5053763;28;20023;-67
2022/10/23 03:51:23;;;;;;;;;;;12.40;99.90;;;;;;5052650;28;19960;-67
2022/10/23 03:53:50;;;;;;;;;;;12.40;99.90;;;;;;5052416;28;20007;-67
2022/10/23 03:56:17;;;;;;;;;;;12.40;99.90;;;;;;5051969;28;19925;-67
2022/10/23 03:58:45;;;;;;;;;;;12.40;99.90;;;;;;5052574;28;20016;-66
2022/10/23 04:01:12;;;;;;;;;;;12.40;99.90;;;;;;5051903;28;19947;-69
2022/10/23 04:03:38;;;;;;;;;;;12.50;99.90;;;;;;5053255;28;20375;-67
2022/10/23 04:06:05;;;;;;;;;;;12.40;99.90;;;;;;5050802;28;20418;-66
2022/10/23 04:08:32;;;;;;;;;;;12.40;99.90;;;;;;5053199;28;19925;-67
2022/10/23 04:10:58;;;;;;;;;;;12.40;99.90;;;;;;5051255;28;19924;-67
2022/10/23 04:13:25;;;;;;;;;;;12.40;99.90;;;;;;5059396;28;20419;-66
2022/10/23 04:15:53;;;;;;;;;;;12.40;99.90;;;;;;5052837;28;20139;-66
2022/10/23 04:18:20;;;;;;;;;;;12.40;99.90;;;;;;5054888;28;19935;-67
2022/10/23 04:20:47;;;;;;;;;;;12.40;99.90;;;;;;5051284;28;19931;-67
2022/10/23 04:23:14;;;;;;;;;;;12.40;99.90;;;;;;5056429;28;20408;-67
2022/10/23 04:25:41;;;;;;;;;;;12.40;99.90;;;;;;5059083;28;20022;-66
2022/10/23 04:28:08;;;;;;;;;;;12.40;99.90;;;;;;5057658;28;20310;-66
2022/10/23 04:30:34;;;;;;;;;;;12.50;99.90;;;;;;5050981;28;19968;-67
2022/10/23 04:33:02;;;;;;;;;;;12.40;99.90;;;;;;5058506;28;19924;-66
2022/10/23 04:35:29;;;;;;;;;;;12.40;99.90;;;;;;5057019;28;19925;-66
2022/10/23 04:37:55;;;;;;;;;;;12.40;99.90;;;;;;5059246;28;19924;-67
2022/10/23 04:40:22;;;;;;;;;;;12.40;99.90;;;;;;5051437;28;19924;-67
2022/10/23 04:42:49;;;;;;;;;;;12.40;99.90;;;;;;5055968;28;20015;-67
2022/10/23 04:45:15;;;;;;;;;;;12.40;99.90;;;;;;5054895;28;20013;-67
2022/10/23 04:47:42;;;;;;;;;;;12.40;99.90;;;;;;5057123;28;20023;-67
2022/10/23 04:50:10;;;;;;;;;;;12.40;99.90;;;;;;5052133;28;20027;-66
2022/10/23 04:52:37;;;;;;;;;;;12.50;99.90;;;;;;5060016;28;19935;-67
2022/10/23 04:55:04;;;;;;;;;;;12.50;99.90;;;;;;5065707;28;19924;-67
2022/10/23 04:57:30;;;;;;;;;;;12.50;99.90;;;;;;5052107;28;19931;-67
2022/10/23 04:59:57;;;;;;;;;;;12.50;99.90;;;;;;5051858;28;19931;-67
2022/10/23 05:02:24;;;;;;;;;;;12.60;99.90;;;;;;5050725;28;20011;-67
2022/10/23 05:04:50;;;;;;;;;;;12.60;99.90;;;;;;5051436;28;19928;-67
2022/10/23 05:07:18;;;;;;;;;;;12.60;99.90;;;;;;5050100;28;19925;-66
2022/10/23 05:09:45;;;;;;;;;;;12.60;99.90;;;;;;5051509;28;19926;-67
2022/10/23 05:12:12;;;;;;;;;;;12.60;99.90;;;;;;5051650;28;19931;-66
2022/10/23 05:14:38;;;;;;;;;;;12.50;99.90;;;;;;5051010;28;20012;-67
2022/10/23 05:17:08;;;;;;;;;;;12.50;99.90;;;;;;5050131;28;19928;-67
2022/10/23 05:19:38;;;;;;;;;;;12.50;99.90;;;;;;5045042;28;19931;-67
2022/10/23 05:22:05;;;;;;;;;;;12.50;99.90;;;;;;5051228;28;19931;-66
2022/10/23 05:24:33;;;;;;;;;;;12.50;99.90;;;;;;5056811;28;20406;-66
2022/10/23 05:27:00;;;;;;;;;;;12.60;99.90;;;;;;5060084;28;20310;-66
2022/10/23 05:29:27;;;;;;;;;;;12.50;99.90;;;;;;5050220;28;19933;-66
2022/10/23 05:31:56;;;;;;;;;;;12.60;99.90;;;;;;5049750;28;19931;-67
2022/10/23 05:34:25;;;;;;;;;;;12.60;99.90;;;;;;5050536;28;19924;-66
2022/10/23 05:36:52;;;;;;;;;;;12.60;99.90;;;;;;5036273;28;20399;-67
2022/10/23 05:39:19;;;;;;;;;;;12.60;99.90;;;;;;5050026;28;19924;-67
2022/10/23 05:41:47;;;;;;;;;;;12.60;99.90;;;;;;5050626;28;20503;-67
2022/10/23 05:44:13;;;;;;;;;;;12.60;99.90;;;;;;5050603;28;19925;-66
2022/10/23 05:46:40;;;;;;;;;;;12.60;99.90;;;;;;5051053;28;20002;-67
2022/10/23 05:49:07;;;;;;;;;;;12.60;99.90;;;;;;5050566;28;20384;-67
2022/10/23 05:51:36;;;;;;;;;;;12.70;99.90;;;;;;5051035;28;19925;-66
2022/10/23 05:54:03;;;;;;;;;;;12.60;99.90;;;;;;5050128;28;19924;-66
2022/10/23 05:56:29;;;;;;;;;;;12.70;99.90;;;;;;5050206;28;20416;-68
2022/10/23 05:58:57;;;;;;;;;;;12.70;99.90;;;;;;5050791;28;19940;-66
2022/10/23 06:01:24;;;;;;;;;;;12.70;99.90;;;;;;5050678;28;19925;-66
2022/10/23 06:03:51;;;;;;;;;;;12.70;99.90;;;;;;5049600;28;19929;-66
2022/10/23 06:06:17;;;;;;;;;;;12.70;99.90;;;;;;5050036;28;19948;-66
2022/10/23 06:08:44;;;;;;;;;;;12.70;99.90;;;;;;5051469;28;20430;-66
2022/10/23 06:11:12;;;;;;;;;;;12.70;99.90;;;;;;5054196;28;19924;-66
2022/10/23 06:13:39;;;;;;;;;;;12.60;99.90;;;;;;5054645;28;19967;-66
2022/10/23 06:16:10;;;;;;;;;;;12.70;99.90;;;;;;5054822;28;19924;-66
2022/10/23 06:18:37;;;;;;;;;;;12.70;99.90;;;;;;5054251;28;20375;-66
2022/10/23 06:21:04;;;;;;;;;;;12.60;99.90;;;;;;5054812;28;20295;-66
2022/10/23 06:23:31;;;;;;;;;;;12.60;99.90;;;;;;5053884;28;20364;-66
2022/10/23 06:25:58;;;;;;;;;;;12.60;99.90;;;;;;5054073;28;19940;-67
2022/10/23 06:28:24;;;;;;;;;;;12.60;99.90;;;;;;5054251;28;20003;-67
2022/10/23 06:30:51;;;;;;;;;;;12.70;99.90;;;;;;5054208;28;20414;-67
2022/10/23 06:33:19;;;;;;;;;;;12.70;99.90;;;;;;5052986;28;19931;-67
2022/10/23 06:35:46;;;;;;;;;;;12.70;99.90;;;;;;5054514;28;19924;-68
2022/10/23 06:38:13;;;;;;;;;;;12.80;99.90;;;;;;5054543;28;19924;-67
2022/10/23 06:40:40;;;;;;;;;;;12.80;99.90;;;;;;5055490;28;19931;-67
2022/10/23 06:43:07;;;;;;;;;;;12.80;99.90;;;;;;5065605;28;19925;-67
2022/10/23 06:45:34;;;;;;;;;;;12.90;99.90;;;;;;5051939;28;19925;-67
2022/10/23 06:48:01;;;;;;;;;;;12.90;99.90;;;;;;5054024;28;20027;-68
2022/10/23 06:50:30;;;;;;;;;;;12.90;99.90;;;;;;5048506;28;19932;-67
2022/10/23 06:52:57;;;;;;;;;;;12.90;99.90;;;;;;5049442;28;19925;-67
2022/10/23 06:55:24;;;;;;;;;;;12.90;99.90;;;;;;5055255;28;20314;-67
2022/10/23 06:57:50;;;;;;;;;;;13.00;99.90;;;;;;5059481;28;19975;-67
2022/10/23 07:00:17;;;;;;;;;;;12.90;99.90;;;;;;5052078;28;19933;-67
2022/10/23 07:02:44;;;;;;;;;;;13.00;99.90;;;;;;5044463;28;19979;-67
2022/10/23 07:05:11;;;;;;;;;;;13.00;99.90;;;;;;5053692;28;20153;-70
2022/10/23 07:07:39;;;;;;;;;;;13.00;99.90;;;;;;5049844;28;19931;-69
2022/10/23 07:10:06;;;;;;;;;;;13.00;99.90;;;;;;5045249;28;19932;-67
2022/10/23 07:12:32;;;;;;;;;;;13.10;99.90;;;;;;5045288;28;19933;-68
2022/10/23 07:14:59;;;;;;;;;;;13.10;99.90;;;;;;5041934;28;19956;-68
2022/10/23 07:17:26;;;;;;;;;;;13.20;99.90;;;;;;5037898;28;19924;-67
2022/10/23 07:19:52;;;;;;;;;;;13.20;99.90;;;;;;5046065;28;20051;-67
2022/10/23 07:22:19;;;;;;;;;;;13.30;99.90;;;;;;5044946;28;20035;-67
2022/10/23 07:24:47;;;;;;;;;;;13.40;99.90;;;;;;5039319;28;19925;-67
2022/10/23 07:27:14;;;;;;;;;;;13.40;99.90;;;;;;5039674;28;19957;-67
2022/10/23 07:29:41;;;;;;;;;;;13.50;99.90;;;;;;5042030;28;20205;-67
2022/10/23 07:32:08;;;;;;;;;;;13.50;99.90;;;;;;5051118;28;20019;-67
2022/10/23 07:34:35;;;;;;;;;;;13.60;99.90;;;;;;5050696;28;19929;-67
2022/10/23 07:37:02;;;;;;;;;;;13.60;99.90;;;;;;5049925;28;20350;-67
2022/10/23 07:39:29;;;;;;;;;;;13.70;99.90;;;;;;5055115;28;19925;-67
2022/10/23 07:41:57;;;;;;;;;;;13.80;99.90;;;;;;5057832;28;19955;-68
2022/10/23 07:44:23;;;;;;;;;;;13.80;99.90;;;;;;5044121;28;19936;-67
2022/10/23 07:46:50;;;;;;;;;;;13.90;99.90;;;;;;5049272;28;19944;-67
2022/10/23 07:49:17;;;;;;;;;;;14.00;99.90;;;;;;5051670;28;19925;-67
2022/10/23 07:51:43;;;;;;;;;;;14.00;99.90;;;;;;5047866;28;19925;-67
2022/10/23 07:54:11;;;;;;;;;;;14.00;99.90;;;;;;5048465;28;19925;-67
2022/10/23 07:56:37;;;;;;;;;;;14.20;99.90;;;;;;5041205;28;19925;-67
2022/10/23 07:59:05;;;;;;;;;;;14.20;99.90;;;;;;5050080;28;19925;-67
2022/10/23 08:01:33;;;;;;;;;;;14.50;99.90;;;;;;5047231;28;19926;-68
2022/10/23 08:04:00;;;;;;;;;;;14.40;99.90;;;;;;5040234;28;19933;-68
2022/10/23 08:06:26;;;;;;;;;;;14.50;99.90;;;;;;5042865;28;19933;-68
2022/10/23 08:08:54;;;;;;;;;;;14.50;99.90;;;;;;5043598;28;19924;-68
2022/10/23 08:11:25;;;;;;;;;;;14.60;99.90;;;;;;5045641;28;19933;-67
2022/10/23 08:13:52;;;;;;;;;;;14.60;99.90;;;;;;5041990;28;19929;-68
2022/10/23 08:16:20;;;;;;;;;;;14.60;99.90;;;;;;5039903;28;19928;-67
2022/10/23 08:18:48;;;;;;;;;;;14.60;99.90;;;;;;5044332;28;20023;-67
2022/10/23 08:21:15;;;;;;;;;;;14.70;99.90;;;;;;5039621;28;19925;-67
2022/10/23 08:23:42;;;;;;;;;;;14.80;99.90;;;;;;5042465;28;19933;-67
2022/10/23 08:26:09;;;;;;;;;;;14.80;99.90;;;;;;5040230;28;19939;-67
2022/10/23 08:28:36;;;;;;;;;;;14.90;99.90;;;;;;5035475;28;20012;-68
2022/10/23 08:31:06;;;;;;;;;;;14.80;99.90;;;;;;5042627;28;19925;-68
2022/10/23 08:33:34;;;;;;;;;;;14.90;99.90;;;;;;5038548;28;19929;-68
2022/10/23 08:36:01;;;;;;;;;;;14.90;99.90;;;;;;5045223;28;19943;-68
2022/10/23 08:38:28;;;;;;;;;;;14.90;99.90;;;;;;5045161;28;19942;-68
2022/10/23 08:40:54;;;;;;;;;;;14.80;99.90;;;;;;5043559;28;19972;-68
2022/10/23 08:43:24;;;;;;;;;;;14.80;99.90;;;;;;5042799;28;20020;-67
2022/10/23 08:45:53;;;;;;;;;;;14.70;99.90;;;;;;5043396;28;19931;-67
2022/10/23 08:48:23;;;;;;;;;;;14.70;99.90;;;;;;5050426;28;19932;-68
2022/10/23 08:50:53;;;;;;;;;;;14.70;99.90;;;;;;5043907;28;20016;-68
2022/10/23 08:53:22;;;;;;;;;;;14.70;99.90;;;;;;5047893;28;19925;-67
2022/10/23 08:55:53;;;;;;;;;;;14.90;99.90;;;;;;5043506;28;19929;-68
2022/10/23 08:58:24;;;;;;;;;;;14.90;99.90;;;;;;5050695;28;19924;-68
2022/10/23 09:00:51;;;;;;;;;;;14.90;99.90;;;;;;5043941;28;19947;-68
2022/10/23 09:03:18;;;;;;;;;;;14.90;99.90;;;;;;5036771;28;19925;-67
2022/10/23 09:05:52;;;;;;;;;;;14.90;99.90;;;;;;5042930;28;20022;-67
2022/10/23 09:08:26;;;;;;;;;;;14.90;99.90;;;;;;5045585;28;19932;-68
2022/10/23 09:11:04;;;;;;;;;;;14.90;99.90;;;;;;5046975;28;19932;-68
2022/10/23 09:13:40;;;;;;;;;;;14.90;99.90;;;;;;5055769;28;19925;-68
2022/10/23 09:16:10;;;;;;;;;;;15.00;99.90;;;;;;5046358;28;19925;-68
2022/10/23 09:18:37;;;;;;;;;;;15.10;99.90;;;;;;5047785;28;20015;-69
2022/10/23 09:21:08;;;;;;;;;;;15.10;99.90;;;;;;5048594;28;19924;-68
2022/10/23 09:23:36;;;;;;;;;;;15.10;99.90;;;;;;5040980;28;19926;-68
2022/10/23 09:26:07;;;;;;;;;;;15.20;99.90;;;;;;5047979;28;19929;-68
2022/10/23 09:28:36;;;;;;;;;;;15.30;99.90;;;;;;5046065;28;20603;-68
2022/10/23 09:31:06;;;;;;;;;;;15.20;99.90;;;;;;5044559;28;19952;-68
2022/10/23 09:33:35;;;;;;;;;;;15.20;99.90;;;;;;5048617;28;19929;-67
2022/10/23 09:36:03;;;;;;;;;;;15.20;99.90;;;;;;5049198;28;19936;-68
2022/10/23 09:38:30;;;;;;;;;;;15.30;99.90;;;;;;5044650;28;20586;-68
2022/10/23 09:40:59;;;;;;;;;;;15.40;99.90;;;;;;5041787;28;19928;-68
2022/10/23 09:43:27;;;;;;;;;;;15.50;99.90;;;;;;5052326;28;19933;-68
2022/10/23 09:45:58;;;;;;;;;;;15.60;99.90;;;;;;5057765;28;20637;-68
2022/10/23 09:48:25;;;;;;;;;;;15.60;99.90;;;;;;5056339;28;19924;-68
2022/10/23 09:50:52;;;;;;;;;;;;;;;;;;5052495;28;19924;-68
2022/10/23 09:53:19;;;;;;;;;;;;;;;;;;5052154;28;20716;-68
2022/10/23 09:55:45;;;;;;;;;;;;;;;;;;5052896;28;19931;-68
2022/10/23 09:58:12;;;;;;;;;;;;;;;;;;5049031;28;19929;-68
2022/10/23 10:00:39;;;;;;;;;;;;;;;;;;5052127;28;20020;-68
2022/10/23 10:03:06;;;;;;;;;;;;;;;;;;5049450;28;20394;-68
2022/10/23 10:05:33;;;;;;;;;;;;;;;;;;5051950;28;22413;-68
2022/10/23 10:08:00;;;;;;;;;;;;;;;;;;5049626;28;20342;-68
2022/10/23 10:10:27;;;;;;;;;;;;;;;;;;5050491;28;20387;-68
2022/10/23 10:12:55;;;;;;;;;;;;;;;;;;5053743;28;20038;-68
2022/10/23 10:15:22;;;;;;;;;;;;;;;;;;5060644;28;19931;-69
2022/10/23 10:17:49;;;;;;;;;;;;;;;;;;5050162;28;19928;-70
2022/10/23 10:20:16;;;;;;;;;;;;;;;;;;5049650;28;19933;-69
2022/10/23 10:22:49;;;;;;;;;;;17.10;99.90;;;;;;5050909;28;20399;-69
2022/10/23 10:25:18;;;;;;;;;;;17.10;99.90;;;;;;5053742;28;19925;-69
2022/10/23 10:27:52;;;;;;;;;;;17.20;99.90;;;;;;5053955;28;19924;-69
2022/10/23 10:30:19;;;;;;;;;;;17.20;99.90;;;;;;5052159;28;19925;-69
2022/10/23 10:32:51;;;;;;;;;;;17.30;99.90;;;;;;5053484;28;19925;-69
2022/10/23 10:35:22;;;;;;;;;;;17.40;99.90;;;;;;5052174;28;19984;-69
2022/10/23 10:37:58;;;;;;;;;;;17.50;99.90;;;;;;5052630;28;19924;-69
2022/10/23 10:40:27;;;;;;;;;;;17.60;99.90;;;;;;5045136;28;19979;-69
2022/10/23 10:43:09;;;;;;;;;;;17.70;99.90;;;;;;5053983;28;20288;-69
2022/10/23 10:45:37;;;;;;;;;;;17.90;99.90;;;;;;5047743;28;19932;-69
2022/10/23 10:48:13;;;;;;;;;;;17.90;99.90;;;;;;5047288;28;19953;-70
2022/10/23 10:50:43;;;;;;;;;;;18.10;99.90;;;;;;5050266;28;19956;-70
2022/10/23 10:53:17;;;;;;;;;;;18.20;99.90;;;;;;5042837;28;19941;-70
2022/10/23 10:55:44;;;;;;;;;;;18.30;99.90;;;;;;5044872;28;20881;-70
2022/10/23 10:58:16;;;;;;;;;;;18.30;99.90;;;;;;5050581;28;19928;-71
2022/10/23 11:00:44;;;;;;;;;;;18.30;99.90;;;;;;5046195;28;19931;-71
2022/10/23 11:03:19;;;;;;;;;;;18.30;99.90;;;;;;5049347;28;19929;-70
2022/10/23 11:05:47;;;;;;;;;;;18.40;99.90;;;;;;5048635;28;20011;-70
2022/10/23 11:08:19;;;;;;;;;;;18.40;99.90;;;;;;5052610;28;19932;-70
2022/10/23 11:10:47;;;;;;;;;;;18.50;99.90;;;;;;5045829;28;20386;-69
2022/10/23 11:13:22;;;;;;;;;;;18.60;99.90;;;;;;5044261;28;19924;-68
2022/10/23 11:15:49;;;;;;;;;;;18.60;99.90;;;;;;5035646;28;20315;-68
2022/10/23 11:18:19;;;;;;;;;;;18.60;99.90;;;;;;5039972;28;20039;-67
2022/10/23 11:20:52;;;;;;;;;;;18.60;99.90;;;;;;5041046;28;20331;-68
2022/10/23 11:23:32;;;;;;;;;;;18.60;99.90;;;;;;5042231;28;20527;-67
2022/10/23 11:26:03;;;;;;;;;;;18.60;99.90;;;;;;5041510;28;19933;-68
2022/10/23 11:28:38;;;;;;;;;;;18.70;99.90;;;;;;5041849;28;19931;-68
2022/10/23 11:31:14;;;;;;;;;;;18.70;99.90;;;;;;5040022;28;19956;-67
2022/10/23 11:33:55;;;;;;;;;;;18.80;99.90;;;;;;5043605;28;19931;-69
2022/10/23 11:36:32;;;;;;;;;;;18.80;99.90;;;;;;5041245;28;20000;-68
2022/10/23 11:39:07;;;;;;;;;;;18.80;99.90;;;;;;5042790;28;19943;-69
2022/10/23 11:41:34;;;;;;;;;;;19.00;99.90;;;;;;5041186;28;19933;-68
2022/10/23 11:44:03;;;;;;;;;;;19.10;99.90;;;;;;5041123;28;19964;-67
2022/10/23 11:46:31;;;;;;;;;;;19.10;99.90;;;;;;5045840;28;19986;-68
2022/10/23 11:49:01;;;;;;;;;;;19.20;99.90;;;;;;5043999;28;19986;-68
2022/10/23 11:51:29;;;;;;;;;;;19.20;99.90;;;;;;5044781;28;19931;-70
2022/10/23 11:54:05;;;;;;;;;;;19.30;99.90;;;;;;5040389;28;20020;-69
2022/10/23 11:56:34;;;;;;;;;;;19.30;99.90;;;;;;5045575;28;19931;-68
2022/10/23 11:59:18;;;;;;;;;;;19.50;99.90;;;;;;5045483;28;20024;-68
2022/10/23 12:01:45;;;;;;;;;;;19.60;99.90;;;;;;5046868;28;19928;-69
2022/10/23 12:04:18;;;;;;;;;;;19.70;99.90;;;;;;5051889;28;19928;-68
2022/10/23 12:06:46;;;;;;;;;;;19.70;99.90;;;;;;5050752;28;19932;-69
2022/10/23 12:09:25;;;;;;;;;;;19.70;99.90;;;;;;5051677;28;19978;-69
2022/10/23 12:12:04;;;;;;;;;;;19.80;99.90;;;;;;5044984;28;20316;-69
2022/10/23 12:14:32;;;;;;;;;;;19.80;99.90;;;;;;5040908;28;19925;-71
2022/10/23 12:16:59;;;;;;;;;;;19.90;99.90;;;;;;5048649;28;20388;-69
2022/10/23 12:19:27;;;;;;;;;;;19.90;99.90;;;;;;5052243;28;19931;-69
2022/10/23 12:21:54;;;;;;;;;;;20.00;99.90;;;;;;5045505;28;19936;-68
2022/10/23 12:24:38;;;;;;;;;;;20.10;99.90;;;;;;5050326;28;19966;-69
2022/10/23 12:27:24;;;;;;;;;;;20.10;99.90;;;;;;5048846;28;19925;-70
2022/10/23 12:30:01;;;;;;;;;;;20.20;99.90;;;;;;5050267;28;20463;-69
2022/10/23 12:32:33;;;;;;;;;;;20.20;99.90;;;;;;5049918;28;20024;-69
2022/10/23 12:35:23;;;;;;;;;;;20.20;99.90;;;;;;5049470;28;19928;-69
2022/10/23 12:37:58;;;;;;;;;;;20.30;99.90;;;;;;5047784;28;20371;-69
2022/10/23 12:40:28;;;;;;;;;;;20.20;99.90;;;;;;5050116;28;19925;-68
2022/10/23 12:42:57;;;;;;;;;;;20.20;99.90;;;;;;5050202;28;19925;-69
2022/10/23 12:45:24;;;;;;;;;;;20.40;99.90;;;;;;5047700;28;19960;-68
2022/10/23 12:47:52;;;;;;;;;;;20.50;99.90;;;;;;5049144;28;19925;-68
2022/10/23 12:50:19;;;;;;;;;;;20.60;99.90;;;;;;5035452;28;19924;-68
2022/10/23 12:52:53;;;;;;;;;;;20.70;99.90;;;;;;5049419;28;20375;-68
2022/10/23 12:55:20;;;;;;;;;;;20.70;99.90;;;;;;5035696;28;19931;-69
2022/10/23 12:57:46;;;;;;;;;;;20.80;99.90;;;;;;5050258;28;20188;-69
2022/10/23 13:00:17;;;;;;;;;;;20.70;99.90;;;;;;5044034;28;19925;-68
2022/10/23 13:02:44;;;;;;;;;;;20.80;99.90;;;;;;5049754;28;20027;-69
2022/10/23 13:05:13;;;;;;;;;;;20.80;99.90;;;;;;5050121;28;19924;-69
2022/10/23 13:07:42;;;;;;;;;;;20.90;99.90;;;;;;5050407;28;20066;-69
2022/10/23 13:10:14;;;;;;;;;;;20.90;99.90;;;;;;5048480;28;19925;-70
2022/10/23 13:12:45;;;;;;;;;;;20.90;99.90;;;;;;5050168;28;19925;-70
2022/10/23 13:15:15;;;;;;;;;;;20.90;99.90;;;;;;5050433;28;19925;-70
2022/10/23 13:17:44;;;;;;;;;;;20.90;99.90;;;;;;5050473;28;19959;-70
2022/10/23 13:20:19;;;;;;;;;;;20.90;99.90;;;;;;5049899;28;20298;-68
2022/10/23 13:22:46;;;;;;;;;;;20.80;99.90;;;;;;5037461;28;20358;-69
2022/10/23 13:25:20;;;;;;;;;;;20.80;99.90;;;;;;5050152;28;19947;-68
2022/10/23 13:27:47;;;;;;;;;;;20.70;99.90;;;;;;5050124;28;19925;-67
2022/10/23 13:30:27;;;;;;;;;;;20.70;99.90;;;;;;5051726;28;20342;-68
2022/10/23 13:32:55;;;;;;;;;;;20.70;99.90;;;;;;5049260;28;19972;-68
2022/10/23 13:35:22;;;;;;;;;;;20.70;99.90;;;;;;5049623;28;19971;-68
2022/10/23 13:37:49;;;;;;;;;;;20.70;99.90;;;;;;5048350;28;19925;-69
2022/10/23 13:40:26;;;;;;;;;;;20.70;99.90;;;;;;5048461;28;20410;-69
2022/10/23 13:42:56;;;;;;;;;;;20.70;99.90;;;;;;5048748;28;19924;-68
2022/10/23 13:45:23;;;;;;;;;;;20.60;99.90;;;;;;5052132;28;19972;-67
2022/10/23 13:47:50;;;;;;;;;;;20.60;99.90;;;;;;5046306;28;19932;-67
2022/10/23 13:50:18;;;;;;;;;;;20.70;99.90;;;;;;5050206;28;19972;-69
2022/10/23 13:52:45;;;;;;;;;;;20.70;99.90;;;;;;5049660;28;20380;-69
2022/10/23 13:55:17;;;;;;;;;;;20.60;99.90;;;;;;5050501;28;19925;-69
2022/10/23 13:57:44;;;;;;;;;;;20.60;99.90;;;;;;5049702;28;20399;-68
2022/10/23 14:00:11;;;;;;;;;;;20.50;99.90;;;;;;5050414;28;20338;-69
2022/10/23 14:02:38;;;;;;;;;;;20.30;99.90;;;;;;5050427;28;20023;-69
2022/10/23 14:05:04;;;;;;;;;;;20.30;99.90;;;;;;5048637;28;19925;-69
2022/10/23 14:07:32;;;;;;;;;;;20.30;99.90;;;;;;5050905;28;19924;-70
2022/10/23 14:09:59;;;;;;;;;;;20.20;99.90;;;;;;5051384;28;19925;-69
2022/10/23 14:12:26;;;;;;;;;;;20.20;99.90;;;;;;5049929;28;19929;-69
2022/10/23 14:14:53;;;;;;;;;;;20.20;99.90;;;;;;5051473;28;19925;-68
2022/10/23 14:17:20;;;;;;;;;;;20.20;99.90;;;;;;5049218;28;20464;-69
2022/10/23 14:19:47;;;;;;;;;;;20.20;99.90;;;;;;5050076;28;20403;-69
2022/10/23 14:22:14;;;;;;;;;;;20.20;99.90;;;;;;5050776;28;19925;-69
2022/10/23 14:24:42;;;;;;;;;;;20.20;99.90;;;;;;5049765;28;19925;-69
2022/10/23 14:27:08;;;;;;;;;;;20.20;99.90;;;;;;5049522;28;19924;-69
2022/10/23 14:29:35;;;;;;;;;;;20.20;99.90;;;;;;5051410;28;19925;-67